Terminal Aerodrome Forecast
Issued by NWS Binghamton, NY

Home | Current Version | Previous Version | Text Only | Print | Product List | Glossary On
Versions: 1 2 3 4 5 6 7 8 9 10 11 12 13 14 15 16 17
535
FTUS41 KBGM 212322
TAFAVP
TAF
KAVP 212322Z 2200/2224 21003KT P6SM SCT120
      TEMPO 2206/2210 5SM BR
     FM221650 20007KT P6SM SCT130
     FM221800 21011G20KT P6SM BKN100
      TEMPO 2220/2224 3SM TSRA BKN040CB=

USA.gov is the U.S. government's official web portal to all federal, state and local government web resources and services.